Airfield :
LOGIN :

Register | Disclaimer

   EN    FR    IT 

 










Legend :    VFR   Marginal VFR   IFR   Intensive IFR   Very Intensive IFR
Visi :
Ceiling :
>= 8 km
>= 3000ft
5 to 8 km
1000 to 3000 ft
1500m to 5 km
500 to 1000 ft
800 to 1500m
200 to 500 ft
< 800m
< 200 ft
Symbols :   Thunderstorms  Fog  Heavy snow  Heavy precipitations  Wind > 20 kt
SIGMETs :     Misc.  Thunderstorms  Icing  Turbulence  Mountain Waves  Volcanic Ashes






- Airport Elevation : 325 ft
- IATA code : BES


LFRB - Brest

CURRENT METAR :
  • 180330Z AUTO 25008KT 9999 FEW028 SCT034 10/08 Q1004 TEMPO 22020G30KT 4000 SHRA SCT018CB BKN020

EXPIRED METARs :
  • 180300Z AUTO 24012KT 210V270 9999 FEW021/// SCT032/// BKN062/// ///CB 10/09 Q1004 TEMPO 22020G30KT 4000 SHRA
  • 180230Z AUTO 24008KT 9999 FEW044/// SCT110/// ///TCU 09/08 Q1004 TEMPO 22020G30KT 4000 SHRA SCT018CB BKN020
  • 180200Z AUTO 25011KT 9999 FEW030/// SCT064/// BKN180/// ///CB 09/08 Q1004 TEMPO 22020G30KT 4000 SHRA
  • 180130Z AUTO 28010KT 260V320 7000 -RA FEW006/// SCT019/// BKN027/// ///CB 10/09 Q1004 TEMPO 22020G30KT 4000 SHRA
  • 180100Z AUTO 24008KT 9999 SCT019/// BKN025/// BKN031/// ///CB 10/09 Q1003 TEMPO 22020G30KT 4000 SHRA

TAF TAF LFRB
Valid from the 18 at 00:00 until the 19 at 06:00 UTC


172300Z 1800/1906 22013KT 9999 SCT020 SCT025
TEMPO 1800/1906 22020G30KT 4000 SHRA SCT018CB BKN020
PROB30
TEMPO 1800/1802 TSRA
ATIS : +33 2 98 32 02 71



MET'MAP, your aeronautical weather chart ! - Copyright ORBIFLY December 2007 - Disclaimer

ORBIFLY MET'MAP TEAM :

Programming & Development : Alexandra Zaïnal
Concept & Development : Baudouin d'Aumeries
Co-Development & Prog : Marc-Olivier Méhu
Technical & hardware support : Manuel Goepfert

Contact : metmap@orbifly.com




SOURCES & CREDITS :

   NOAA